createdAt,value
2019-03-03T00:01:14.712Z,24.63
2019-03-03T00:04:10.194Z,25.65
2019-03-03T00:07:06.360Z,25.00
2019-03-03T00:10:00.819Z,24.95
2019-03-03T00:12:56.775Z,24.70
2019-03-03T00:15:51.902Z,26.73
2019-03-03T00:18:47.385Z,25.92
2019-03-03T00:21:43.108Z,26.48
2019-03-03T00:24:38.343Z,26.05
2019-03-03T00:27:33.499Z,27.05
2019-03-03T00:30:28.964Z,24.65
2019-03-03T00:33:23.890Z,27.35
2019-03-03T00:36:20.071Z,28.00
2019-03-03T00:39:24.759Z,26.00
2019-03-03T00:42:46.589Z,25.50
2019-03-03T00:46:14.346Z,24.12
2019-03-03T00:49:33.879Z,25.30
2019-03-03T00:52:35.139Z,30.40
2019-03-03T00:55:46.669Z,23.65
2019-03-03T00:58:51.656Z,24.32
2019-03-03T01:02:08.986Z,25.60
2019-03-03T01:05:26.135Z,23.43
2019-03-03T01:08:30.680Z,25.43
2019-03-03T01:11:32.307Z,25.57
2019-03-03T01:14:49.249Z,24.92
2019-03-03T01:18:00.351Z,23.27
2019-03-03T01:21:03.734Z,29.92
2019-03-03T01:24:12.335Z,26.75
2019-03-03T01:27:08.524Z,30.00
2019-03-03T01:30:04.532Z,27.70
2019-03-03T01:33:01.977Z,29.20
2019-03-03T01:35:58.065Z,53.90
2019-03-03T01:38:54.262Z,53.15
2019-03-03T01:41:51.324Z,64.40
2019-03-03T01:44:47.641Z,61.13
2019-03-03T01:47:43.483Z,57.70
2019-03-03T01:50:39.495Z,48.95
2019-03-03T01:53:35.783Z,43.40
2019-03-03T01:56:31.903Z,50.40
2019-03-03T01:59:28.261Z,50.55
2019-03-03T02:02:24.631Z,50.95
2019-03-03T02:05:21.016Z,49.33
2019-03-03T02:08:17.119Z,54.80
2019-03-03T02:11:13.380Z,53.98
2019-03-03T02:14:09.585Z,53.00
2019-03-03T02:17:07.053Z,58.68
2019-03-03T02:20:03.306Z,55.35
2019-03-03T02:22:59.844Z,55.92
2019-03-03T02:25:56.136Z,54.75
2019-03-03T02:28:56.907Z,58.90
2019-03-03T02:31:52.594Z,64.05
2019-03-03T02:34:48.573Z,75.28
2019-03-03T02:37:45.279Z,63.28
2019-03-03T02:40:41.228Z,62.43
2019-03-03T02:43:45.173Z,59.37
2019-03-03T02:46:41.277Z,61.33
2019-03-03T02:49:37.157Z,63.20
2019-03-03T02:52:33.476Z,66.85
2019-03-03T02:55:29.875Z,61.70
2019-03-03T02:58:26.651Z,63.02
2019-03-03T03:01:28.159Z,52.62
2019-03-03T03:04:24.897Z,51.68
2019-03-03T03:07:44.690Z,52.25
2019-03-03T03:10:56.073Z,55.10
2019-03-03T03:14:03.895Z,55.67
2019-03-03T03:20:04.542Z,54.40
2019-03-03T03:23:21.138Z,55.55
2019-03-03T03:26:35.126Z,51.20
2019-03-03T03:29:43.202Z,49.98
2019-03-03T03:32:46.590Z,51.83
2019-03-03T03:35:52.864Z,45.80
2019-03-03T03:39:16.030Z,48.20
2019-03-03T03:42:36.595Z,49.73
2019-03-03T03:45:50.645Z,53.30
2019-03-03T03:49:07.387Z,53.17
2019-03-03T03:52:22.562Z,57.10
2019-03-03T03:55:36.603Z,57.58
2019-03-03T03:58:35.584Z,59.07
2019-03-03T04:01:52.112Z,61.15
2019-03-03T04:05:18.019Z,62.15
2019-03-03T04:08:34.971Z,61.10
2019-03-03T04:11:48.068Z,63.08
2019-03-03T04:14:58.741Z,61.48
2019-03-03T04:18:02.086Z,63.05
2019-03-03T04:21:03.989Z,62.45
2019-03-03T04:24:15.736Z,58.13
2019-03-03T04:27:29.180Z,58.87
2019-03-03T04:30:44.879Z,59.25
2019-03-03T04:33:50.012Z,55.70
2019-03-03T04:37:00.928Z,60.03
2019-03-03T04:40:10.503Z,48.58
2019-03-03T04:43:38.970Z,58.08
2019-03-03T04:46:55.478Z,51.00
2019-03-03T04:50:04.676Z,52.40
2019-03-03T04:53:16.249Z,57.70
2019-03-03T04:59:15.687Z,60.30
2019-03-03T05:02:31.307Z,61.05
2019-03-03T05:05:56.296Z,58.42
2019-03-03T05:09:05.640Z,56.98
2019-03-03T05:12:40.508Z,53.28
2019-03-03T05:15:52.319Z,52.00
2019-03-03T05:19:21.278Z,51.65
2019-03-03T05:22:17.119Z,48.10
2019-03-03T05:25:13.703Z,62.13
2019-03-03T05:28:09.039Z,46.05
2019-03-03T05:31:04.222Z,45.63
2019-03-03T05:33:59.544Z,51.70
2019-03-03T05:36:54.798Z,54.60
2019-03-03T05:39:50.021Z,55.27
2019-03-03T05:42:44.728Z,48.58
2019-03-03T05:45:41.333Z,47.23
2019-03-03T05:48:36.788Z,48.23
2019-03-03T05:51:32.073Z,45.57
2019-03-03T05:54:26.879Z,50.95
2019-03-03T05:57:21.769Z,43.35
2019-03-03T06:00:17.319Z,46.83
2019-03-03T06:03:14.237Z,47.58
2019-03-03T06:06:09.340Z,51.92
2019-03-03T06:11:56.419Z,49.60
2019-03-03T06:14:51.658Z,48.65
2019-03-03T06:17:46.736Z,46.63
2019-03-03T06:20:42.188Z,45.38
2019-03-03T06:23:37.500Z,38.60
2019-03-03T06:26:32.768Z,41.80
2019-03-03T06:29:27.810Z,45.92
2019-03-03T06:32:22.612Z,47.08
2019-03-03T06:35:17.796Z,43.10
2019-03-03T06:38:12.791Z,40.90
2019-03-03T06:41:07.938Z,40.90
2019-03-03T06:44:03.211Z,47.00
2019-03-03T06:46:58.876Z,45.03
2019-03-03T06:49:53.922Z,40.05
2019-03-03T06:52:49.444Z,43.60
2019-03-03T06:55:45.120Z,45.40
2019-03-03T06:58:40.640Z,35.83
2019-03-03T07:01:35.105Z,40.98
2019-03-03T07:04:30.479Z,35.55
2019-03-03T07:07:25.562Z,32.13
2019-03-03T07:13:12.493Z,39.18
2019-03-03T07:16:08.383Z,31.95
2019-03-03T07:19:03.451Z,33.95
2019-03-03T07:21:58.107Z,35.43
2019-03-03T07:24:52.771Z,34.83
2019-03-03T07:27:47.736Z,35.00
2019-03-03T07:30:42.326Z,37.42
2019-03-03T07:33:38.939Z,37.00
2019-03-03T07:36:33.516Z,30.12
2019-03-03T07:39:28.330Z,32.33
2019-03-03T07:42:22.511Z,35.17
2019-03-03T07:45:16.853Z,32.60
2019-03-03T07:48:11.256Z,35.90
2019-03-03T07:51:05.951Z,39.10
2019-03-03T07:54:00.453Z,34.73
2019-03-03T07:56:54.939Z,32.23
2019-03-03T07:59:49.514Z,29.40
2019-03-03T08:02:44.362Z,28.92
2019-03-03T08:05:38.757Z,31.52
2019-03-03T08:08:33.445Z,31.73
2019-03-03T08:11:28.308Z,38.10
2019-03-03T08:14:22.783Z,36.98
2019-03-03T08:17:17.528Z,28.40
2019-03-03T08:20:12.490Z,28.65
2019-03-03T08:23:07.256Z,28.85
2019-03-03T08:26:01.976Z,25.12
2019-03-03T08:28:57.625Z,22.82
2019-03-03T08:31:52.267Z,33.38
2019-03-03T08:37:37.351Z,25.25
2019-03-03T08:40:32.230Z,24.83
2019-03-03T08:43:33.583Z,26.37
2019-03-03T08:46:52.688Z,32.70
2019-03-03T08:50:12.126Z,24.12
2019-03-03T08:53:23.203Z,23.55
2019-03-03T08:56:25.991Z,20.02
2019-03-03T08:59:32.772Z,21.55
2019-03-03T09:02:48.570Z,20.17
2019-03-03T09:05:53.190Z,19.77
2019-03-03T09:09:11.976Z,23.92
2019-03-03T09:12:29.894Z,21.00
2019-03-03T09:15:37.832Z,20.65
2019-03-03T09:19:00.078Z,17.65
2019-03-03T09:22:07.344Z,21.42
2019-03-03T09:25:27.219Z,24.32
2019-03-03T09:28:57.912Z,18.87
2019-03-03T09:35:14.802Z,18.32
2019-03-03T09:38:30.594Z,23.45
2019-03-03T09:41:42.999Z,24.98
2019-03-03T09:44:51.543Z,31.48
2019-03-03T09:48:14.374Z,22.75
2019-03-03T09:51:21.691Z,20.40
2019-03-03T09:54:34.527Z,18.23
2019-03-03T09:57:36.559Z,23.30
2019-03-03T10:00:49.239Z,17.17
2019-03-03T10:03:58.281Z,23.70
2019-03-03T10:07:13.768Z,23.25
2019-03-03T10:10:15.083Z,16.73
2019-03-03T10:13:33.596Z,23.13
2019-03-03T10:16:40.062Z,16.35
2019-03-03T10:19:46.227Z,22.07
2019-03-03T10:22:58.826Z,21.60
2019-03-03T10:26:15.439Z,21.15
2019-03-03T10:29:27.179Z,20.23
2019-03-03T10:32:48.656Z,16.57
2019-03-03T10:36:01.348Z,16.23
2019-03-03T10:39:20.020Z,16.93
2019-03-03T10:42:30.764Z,16.47
2019-03-03T10:45:43.267Z,15.80
2019-03-03T10:48:58.939Z,16.12
2019-03-03T10:51:59.260Z,15.85
2019-03-03T10:55:10.116Z,16.67
2019-03-03T10:58:22.898Z,18.32
2019-03-03T11:01:25.710Z,16.35
2019-03-03T11:04:39.254Z,15.93
2019-03-03T11:07:49.933Z,16.35
2019-03-03T11:11:09.482Z,15.32
2019-03-03T11:14:24.388Z,13.80
2019-03-03T11:17:33.229Z,16.75
2019-03-03T11:20:49.111Z,14.15
2019-03-03T11:24:04.805Z,13.80
2019-03-03T11:27:21.082Z,14.70
2019-03-03T11:30:39.462Z,15.80
2019-03-03T11:33:58.028Z,18.30
2019-03-03T11:37:14.509Z,14.13
2019-03-03T11:40:19.117Z,17.27
2019-03-03T11:43:20.061Z,18.20
2019-03-03T11:46:35.958Z,16.90
2019-03-03T11:49:56.999Z,16.17
2019-03-03T11:52:58.337Z,13.88
2019-03-03T11:56:13.723Z,14.70
2019-03-03T11:59:32.124Z,14.07
2019-03-03T12:02:37.694Z,15.98
2019-03-03T12:05:50.096Z,15.35
2019-03-03T12:08:54.535Z,15.23
2019-03-03T12:12:21.797Z,15.53
2019-03-03T12:15:35.110Z,14.15
2019-03-03T12:18:47.768Z,13.08
2019-03-03T12:22:12.220Z,16.25
2019-03-03T12:25:28.328Z,16.00
2019-03-03T12:28:45.116Z,16.50
2019-03-03T12:32:00.734Z,15.15
2019-03-03T12:35:14.534Z,15.70
2019-03-03T12:38:21.871Z,14.00
2019-03-03T12:41:52.477Z,16.10
2019-03-03T12:45:02.862Z,13.83
2019-03-03T12:48:14.360Z,15.93
2019-03-03T12:51:29.792Z,15.08
2019-03-03T12:54:40.029Z,15.43
2019-03-03T12:57:51.204Z,15.18
2019-03-03T13:00:58.658Z,14.00
2019-03-03T13:04:14.253Z,14.75
2019-03-03T13:07:23.355Z,14.80
2019-03-03T13:10:45.083Z,15.53
2019-03-03T13:13:47.837Z,15.05
2019-03-03T13:17:00.123Z,15.83
2019-03-03T13:20:07.007Z,13.98
2019-03-03T13:23:10.921Z,15.38
2019-03-03T13:26:30.805Z,15.58
2019-03-03T13:29:52.578Z,16.55
2019-03-03T13:32:57.635Z,14.47
2019-03-03T13:39:20.403Z,15.38
2019-03-03T13:42:33.241Z,16.30
2019-03-03T13:45:30.006Z,15.53
2019-03-03T13:48:24.953Z,14.20
2019-03-03T13:51:19.455Z,15.13
2019-03-03T13:54:14.128Z,14.30
2019-03-03T13:57:08.347Z,14.85
2019-03-03T14:00:02.683Z,12.50
2019-03-03T14:02:57.869Z,12.47
2019-03-03T14:05:52.371Z,14.58
2019-03-03T14:08:46.935Z,15.95
2019-03-03T14:11:41.805Z,14.80
2019-03-03T14:14:36.502Z,12.90
2019-03-03T14:17:31.365Z,12.95
2019-03-03T14:20:26.557Z,14.78
2019-03-03T14:23:21.226Z,15.93
2019-03-03T14:26:16.298Z,15.32
2019-03-03T14:29:11.022Z,16.70
2019-03-03T14:32:06.791Z,15.80
2019-03-03T14:35:01.126Z,16.15
2019-03-03T14:37:56.618Z,16.27
2019-03-03T14:40:51.276Z,16.48
2019-03-03T14:43:46.656Z,16.50
2019-03-03T14:46:41.112Z,17.60
2019-03-03T14:49:35.666Z,18.37
2019-03-03T14:52:30.294Z,17.37
2019-03-03T14:55:24.890Z,18.05
2019-03-03T14:58:19.434Z,16.25
2019-03-03T15:01:14.264Z,16.35
2019-03-03T15:04:08.847Z,17.25
2019-03-03T15:07:03.543Z,17.62
2019-03-03T15:09:58.051Z,16.30
2019-03-03T15:12:52.639Z,17.98
2019-03-03T15:15:48.187Z,17.67
2019-03-03T15:18:43.404Z,17.00
2019-03-03T15:21:38.088Z,20.43
2019-03-03T15:24:34.405Z,18.57
2019-03-03T15:27:29.427Z,17.75
2019-03-03T15:30:24.624Z,16.80
2019-03-03T15:33:19.369Z,18.35
2019-03-03T15:36:13.901Z,20.27
2019-03-03T15:39:10.498Z,17.10
2019-03-03T15:42:05.320Z,18.52
2019-03-03T15:45:01.047Z,18.02
2019-03-03T15:47:55.791Z,16.17
2019-03-03T15:50:50.834Z,18.55
2019-03-03T15:53:45.635Z,18.60
2019-03-03T15:56:40.604Z,18.12
2019-03-03T15:59:35.442Z,16.82
2019-03-03T16:02:29.784Z,17.45
2019-03-03T16:05:22.867Z,18.15
2019-03-03T16:08:17.621Z,18.17
2019-03-03T16:11:12.205Z,17.35
2019-03-03T16:14:06.647Z,17.55
2019-03-03T16:17:01.163Z,17.45
2019-03-03T16:22:42.019Z,15.65
2019-03-03T16:25:36.419Z,15.93
2019-03-03T16:28:30.999Z,17.00
2019-03-03T16:31:25.570Z,16.48
2019-03-03T16:34:20.572Z,16.37
2019-03-03T16:37:16.768Z,16.32
2019-03-03T16:40:12.776Z,18.10
2019-03-03T16:43:07.177Z,17.40
2019-03-03T16:46:01.828Z,16.12
2019-03-03T16:48:57.076Z,15.78
2019-03-03T16:51:52.637Z,17.90
2019-03-03T16:54:47.452Z,18.95
2019-03-03T16:57:41.986Z,17.82
2019-03-03T17:00:36.304Z,17.65
2019-03-03T17:03:30.702Z,20.83
2019-03-03T17:06:25.322Z,21.77
2019-03-03T17:09:20.969Z,21.97
2019-03-03T17:12:15.467Z,19.80
2019-03-03T17:15:11.218Z,25.17
2019-03-03T17:18:04.520Z,22.00
2019-03-03T17:20:58.982Z,20.90
2019-03-03T17:23:54.023Z,24.95
2019-03-03T17:26:48.457Z,23.73
2019-03-03T17:35:24.839Z,22.00
2019-03-03T17:38:19.630Z,22.70
2019-03-03T17:41:15.996Z,20.00
2019-03-03T17:44:10.357Z,19.82
2019-03-03T17:47:05.597Z,20.80
2019-03-03T17:50:00.425Z,20.03
2019-03-03T17:52:55.440Z,18.73
2019-03-03T17:55:49.917Z,19.27
2019-03-03T17:58:44.641Z,21.77
2019-03-03T18:01:39.575Z,23.62
2019-03-03T18:04:34.364Z,21.73
2019-03-03T18:07:28.286Z,21.48
2019-03-03T18:10:22.656Z,20.27
2019-03-03T18:13:21.400Z,21.77
2019-03-03T18:16:17.232Z,23.38
2019-03-03T18:19:13.128Z,20.92
2019-03-03T18:22:07.676Z,19.62
2019-03-03T18:25:02.799Z,20.48
2019-03-03T18:27:56.250Z,23.80
2019-03-03T18:30:50.932Z,25.23
2019-03-03T18:33:45.655Z,24.02
2019-03-03T18:36:38.499Z,25.25
2019-03-03T18:39:33.384Z,18.77
2019-03-03T18:42:28.444Z,21.87
2019-03-03T18:45:23.244Z,22.60
2019-03-03T18:48:18.039Z,23.98
2019-03-03T18:51:12.982Z,22.60
2019-03-03T18:54:10.385Z,22.83
2019-03-03T18:57:05.561Z,23.70
2019-03-03T18:59:59.971Z,30.37
2019-03-03T19:02:58.223Z,24.50
2019-03-03T19:05:55.619Z,23.77
2019-03-03T19:08:50.254Z,23.17
2019-03-03T19:11:45.024Z,28.02
2019-03-03T19:14:39.532Z,23.83
2019-03-03T19:17:34.115Z,22.95
2019-03-03T19:20:28.824Z,26.07
2019-03-03T19:23:23.377Z,32.30
2019-03-03T19:26:21.604Z,28.57
2019-03-03T19:29:16.006Z,25.10
2019-03-03T19:32:10.489Z,24.05
2019-03-03T19:35:04.885Z,31.00
2019-03-03T19:37:59.249Z,27.70
2019-03-03T19:40:54.544Z,25.40
2019-03-03T19:43:49.585Z,25.72
2019-03-03T19:46:45.097Z,25.68
2019-03-03T19:49:40.235Z,28.25
2019-03-03T19:52:35.755Z,27.00
2019-03-03T19:55:31.020Z,26.33
2019-03-03T19:58:26.034Z,27.55
2019-03-03T20:01:20.794Z,29.42
2019-03-03T20:04:15.698Z,29.02
2019-03-03T20:07:10.508Z,28.70
2019-03-03T20:10:05.983Z,31.02
2019-03-03T20:13:00.249Z,31.10
2019-03-03T20:15:55.142Z,30.25
2019-03-03T20:18:50.394Z,34.13
2019-03-03T20:21:45.433Z,30.80
2019-03-03T20:24:40.842Z,27.17
2019-03-03T20:27:35.917Z,32.03
2019-03-03T20:30:30.901Z,29.25
2019-03-03T20:33:26.364Z,30.30
2019-03-03T20:36:21.283Z,30.90
2019-03-03T20:39:16.625Z,28.65
2019-03-03T20:42:11.789Z,31.87
2019-03-03T20:45:06.720Z,30.08
2019-03-03T20:48:01.792Z,34.33
2019-03-03T20:50:56.941Z,31.07
2019-03-03T20:53:52.985Z,32.58
2019-03-03T20:56:47.758Z,32.88
2019-03-03T20:59:42.831Z,32.67
2019-03-03T21:02:37.773Z,30.02
2019-03-03T21:05:33.372Z,31.57
2019-03-03T21:08:28.528Z,32.10
2019-03-03T21:11:23.826Z,33.13
2019-03-03T21:14:18.995Z,32.70
2019-03-03T21:17:13.875Z,31.02
2019-03-03T21:20:09.611Z,34.25
2019-03-03T21:23:04.595Z,33.25
2019-03-03T21:26:00.060Z,33.10
2019-03-03T21:28:55.041Z,34.43
2019-03-03T21:31:50.240Z,32.93
2019-03-03T21:34:45.644Z,29.87
2019-03-03T21:37:41.282Z,33.35
2019-03-03T21:40:37.207Z,34.10
2019-03-03T21:43:32.752Z,32.85
2019-03-03T21:46:27.528Z,33.08
2019-03-03T21:49:23.128Z,27.62
2019-03-03T21:52:17.995Z,31.95
2019-03-03T21:55:13.877Z,30.57
2019-03-03T21:58:10.571Z,27.50
2019-03-03T22:01:07.722Z,29.15
2019-03-03T22:04:02.532Z,30.55
2019-03-03T22:06:58.161Z,31.48
2019-03-03T22:09:53.485Z,32.05
2019-03-03T22:12:49.277Z,35.73
2019-03-03T22:15:44.662Z,30.40
2019-03-03T22:18:39.943Z,31.95
2019-03-03T22:21:35.408Z,33.28
2019-03-03T22:24:30.633Z,30.88
2019-03-03T22:27:27.327Z,33.08
2019-03-03T22:30:22.846Z,34.98
2019-03-03T22:33:18.220Z,30.75
2019-03-03T22:36:13.485Z,38.00
2019-03-03T22:39:09.848Z,40.25
2019-03-03T22:42:04.888Z,32.17
2019-03-03T22:44:59.922Z,37.03
2019-03-03T22:47:55.567Z,44.48
2019-03-03T22:50:50.840Z,37.77
2019-03-03T22:53:45.745Z,40.95
2019-03-03T22:56:41.017Z,38.10
2019-03-03T22:59:36.135Z,35.92
2019-03-03T23:02:31.179Z,44.08
2019-03-03T23:05:48.979Z,44.33
2019-03-03T23:08:58.567Z,46.65
2019-03-03T23:12:10.340Z,35.05
2019-03-03T23:15:46.118Z,44.15
2019-03-03T23:19:22.751Z,42.65
2019-03-03T23:22:54.260Z,40.75
2019-03-03T23:25:56.638Z,43.02
2019-03-03T23:28:51.762Z,42.48
2019-03-03T23:31:47.003Z,35.47
2019-03-03T23:34:42.251Z,40.97
2019-03-03T23:37:37.348Z,44.93
2019-03-03T23:40:32.454Z,44.85
2019-03-03T23:43:27.168Z,41.98
2019-03-03T23:46:21.570Z,40.78
2019-03-03T23:49:16.071Z,44.93
2019-03-03T23:52:12.424Z,42.60
2019-03-03T23:55:06.978Z,44.93
2019-03-03T23:58:01.510Z,43.70
